Time;durP1;ratioP1;P1;durP2;ratioP2;P2;SDS_P1;SDS_P2;PMS_P1;PMS_P2;Temp;Humidity;BMP_temperature;BMP_pressure;BME280_temperature;BME280_humidity;BME280_pressure;Samples;Min_cycle;Max_cycle;Signal;HPM_P1;HPM_P2
2022/01/19 00:01:03;;;;;;;52.20;18.03;;;;;;;;;;5037322;28;20190;-68
2022/01/19 00:03:28;;;;;;;56.87;19.23;;;;;;;;;;5036312;28;20333;-68
2022/01/19 00:05:53;;;;;;;50.90;17.73;;;;;;;;;;5044071;28;20237;-68
2022/01/19 00:08:21;;;;;;;56.37;19.60;;;;;;;;;;5042743;28;20190;-68
2022/01/19 00:10:49;;;;;;;53.87;18.17;;;;;;;;;;5044208;28;20201;-68
2022/01/19 00:13:15;;;;;;;55.27;18.33;;;;;;;;;;5039963;28;20274;-68
2022/01/19 00:15:41;;;;;;;54.77;17.47;;;;;;;;;;5039149;28;20664;-68
2022/01/19 00:18:06;;;;;;;45.27;17.60;;;;;;;;;;5043123;28;20231;-68
2022/01/19 00:20:33;;;;;;;51.17;17.83;;;;;;;;;;5043856;28;20255;-68
2022/01/19 00:23:00;;;;;;;48.30;17.70;;;;;;;;;;5039535;28;20248;-68
2022/01/19 00:25:26;;;;;;;56.47;18.37;;;;;;;;;;5041577;28;20223;-67
2022/01/19 00:27:52;;;;;;;62.87;20.13;;;;;;;;;;5042339;28;20213;-68
2022/01/19 00:30:18;;;;;;;67.37;19.97;;;;;;;;;;5043255;28;20740;-68
2022/01/19 00:32:43;;;;;;;55.73;20.07;;;;;;;;;;5042199;28;20181;-67
2022/01/19 00:35:10;;;;;;;64.47;20.47;;;;;;;;;;5043689;28;20646;-67
2022/01/19 00:37:36;;;;;;;59.00;20.67;;;;;;;;;;5042743;28;20200;-67
2022/01/19 00:40:04;;;;;;;72.43;19.93;;;;;;;;;;5036842;28;20204;-67
2022/01/19 00:42:29;;;;;;;64.37;20.17;;;;;;;;;;5041053;28;20229;-68
2022/01/19 00:44:54;;;;;;;65.67;20.10;;;;;;;;;;5045721;28;20497;-68
2022/01/19 00:47:20;;;;;;;52.10;18.13;;;;;;;;;;5044112;28;20616;-68
2022/01/19 00:49:45;;;;;;;53.37;18.30;;;;;;;;;;5045642;28;20201;-67
2022/01/19 00:52:12;;;;;;;58.87;19.03;;;;;;;;;;5043868;28;20187;-68
2022/01/19 00:54:38;;;;;;;54.97;18.60;;;;;;;;;;5045529;28;20542;-68
2022/01/19 00:57:04;;;;;;;57.50;18.47;;;;;;;;;;5044605;28;20576;-68
2022/01/19 00:59:30;;;;;;;52.90;17.23;;;;;;;;;;5031845;28;20268;-67
2022/01/19 01:01:55;;;;;;;57.93;19.07;;;;;;;;;;5039342;28;20583;-68
2022/01/19 01:04:21;;;;;;;53.10;18.83;;;;;;;;;;5040201;28;20240;-68
2022/01/19 01:06:46;;;;;;;67.53;20.53;;;;;;;;;;5038973;28;20244;-68
2022/01/19 01:09:12;;;;;;;51.53;16.70;;;;;;;;;;5040391;28;20189;-68
2022/01/19 01:11:46;;;;;;;61.90;19.57;;;;;;;;;;5043600;28;20185;-67
2022/01/19 01:16:50;;;;;;;58.03;18.63;;;;;;;;;;5046820;28;20258;-67
2022/01/19 01:19:16;;;;;;;60.13;19.07;;;;;;;;;;5040334;28;20548;-68
2022/01/19 01:21:41;;;;;;;61.53;18.90;;;;;;;;;;5041779;28;20209;-68
2022/01/19 01:24:07;;;;;;;49.80;16.93;;;;;;;;;;5039620;28;20200;-68
2022/01/19 01:26:32;;;;;;;56.37;16.73;;;;;;;;;;5041746;28;20300;-68
2022/01/19 01:28:58;;;;;;;58.63;17.47;;;;;;;;;;5039216;28;20565;-69
2022/01/19 01:31:23;;;;;;;62.67;17.97;;;;;;;;;;5044399;28;20209;-68
2022/01/19 01:33:48;;;;;;;57.60;18.67;;;;;;;;;;5040986;28;20560;-68
2022/01/19 01:36:15;;;;;;;52.83;18.70;;;;;;;;;;5041007;28;20251;-67
2022/01/19 01:38:40;;;;;;;63.07;20.00;;;;;;;;;;5040826;28;20247;-67
2022/01/19 01:41:13;;;;;;;58.77;19.23;;;;;;;;;;5043858;28;20629;-68
2022/01/19 01:43:39;;;;;;;63.83;19.50;;;;;;;;;;5038747;28;20181;-68
2022/01/19 01:46:12;;;;;;;59.53;18.17;;;;;;;;;;5041303;28;20248;-68
2022/01/19 01:48:43;;;;;;;60.27;18.43;;;;;;;;;;5036947;28;20274;-68
2022/01/19 01:53:54;;;;;;;55.57;17.10;;;;;;;;;;5040687;28;20192;-67
2022/01/19 01:56:20;;;;;;;57.23;17.03;;;;;;;;;;5043740;28;20189;-67
2022/01/19 01:58:47;;;;;;;64.37;18.20;;;;;;;;;;5031898;28;20183;-67
2022/01/19 02:01:13;;;;;;;53.10;17.13;;;;;;;;;;5040558;28;20189;-67
2022/01/19 02:03:40;;;;;;;59.60;17.27;;;;;;;;;;5039065;28;20194;-67
2022/01/19 02:08:54;;;;;;;54.37;17.93;;;;;;;;;;5045309;28;20193;-68
2022/01/19 02:15:48;;;;;;;74.80;19.07;;;;;;;;;;5045964;28;20549;-68
2022/01/19 02:23:22;;;;;;;62.47;17.90;;;;;;;;;;5044640;28;20220;-68
2022/01/19 02:25:53;;;;;;;78.03;20.37;;;;;;;;;;5044504;28;20208;-69
2022/01/19 02:31:45;;;;;;;68.87;22.23;;;;;;;;;;5045626;28;20212;-68
2022/01/19 02:42:12;;;;;;;99.17;24.70;;;;;;;;;;5044239;28;20713;-68
2022/01/19 02:49:53;;;;;;;100.87;28.73;;;;;;;;;;5048690;28;20308;-67
2022/01/19 02:52:19;;;;;;;107.27;30.30;;;;;;;;;;5041563;28;20209;-68
2022/01/19 02:54:45;;;;;;;126.53;31.60;;;;;;;;;;5044297;28;20591;-67
2022/01/19 02:57:13;;;;;;;125.97;35.77;;;;;;;;;;5046275;28;20195;-68
2022/01/19 03:10:48;;;;;;;136.57;38.40;;;;;;;;;;5044102;28;20262;-68
2022/01/19 03:13:14;;;;;;;127.53;36.73;;;;;;;;;;5046673;28;20189;-68
2022/01/19 03:15:39;;;;;;;138.80;37.87;;;;;;;;;;5047266;28;20311;-68
2022/01/19 03:18:04;;;;;;;135.70;37.07;;;;;;;;;;5045573;28;20569;-67
2022/01/19 03:20:30;;;;;;;129.67;37.40;;;;;;;;;;5044451;28;20197;-67
2022/01/19 03:25:21;;;;;;;126.57;37.70;;;;;;;;;;5045383;28;20204;-68
2022/01/19 03:27:47;;;;;;;121.20;37.47;;;;;;;;;;5043654;28;20174;-68
2022/01/19 03:30:15;;;;;;;128.20;37.23;;;;;;;;;;5045629;28;20213;-68
2022/01/19 03:32:40;;;;;;;122.83;37.70;;;;;;;;;;5043678;28;20490;-67
2022/01/19 03:35:06;;;;;;;125.87;38.10;;;;;;;;;;5047432;28;20188;-67
2022/01/19 03:37:31;;;;;;;121.90;36.33;;;;;;;;;;5042875;28;20185;-68
2022/01/19 03:39:57;;;;;;;115.93;34.37;;;;;;;;;;5045175;28;20570;-68
2022/01/19 03:42:22;;;;;;;116.40;34.40;;;;;;;;;;5043732;28;20211;-68
2022/01/19 03:44:48;;;;;;;123.03;36.90;;;;;;;;;;5044463;28;20177;-68
2022/01/19 03:47:13;;;;;;;126.07;37.07;;;;;;;;;;5043108;28;20336;-68
2022/01/19 03:49:38;;;;;;;138.43;38.17;;;;;;;;;;5040241;28;20458;-68
2022/01/19 03:52:05;;;;;;;128.17;36.93;;;;;;;;;;5045202;28;20649;-68
2022/01/19 03:54:34;;;;;;;124.07;36.83;;;;;;;;;;5045430;28;20212;-68
2022/01/19 03:56:59;;;;;;;136.93;37.03;;;;;;;;;;5041229;28;20545;-67
2022/01/19 03:59:25;;;;;;;116.00;35.70;;;;;;;;;;5046232;28;20194;-68
2022/01/19 04:01:52;;;;;;;128.60;37.30;;;;;;;;;;5042876;28;20218;-68
2022/01/19 04:06:57;;;;;;;106.33;32.43;;;;;;;;;;5043315;28;20225;-67
2022/01/19 04:09:23;;;;;;;115.30;34.13;;;;;;;;;;5045179;28;20197;-67
2022/01/19 04:11:49;;;;;;;112.33;34.03;;;;;;;;;;5040420;28;20624;-68
2022/01/19 04:14:21;;;;;;;104.60;30.50;;;;;;;;;;5043661;28;20236;-67
2022/01/19 04:16:47;;;;;;;121.33;35.13;;;;;;;;;;5041764;28;20170;-67
2022/01/19 04:19:26;;;;;;;110.93;35.13;;;;;;;;;;5044867;28;20235;-67
2022/01/19 04:21:52;;;;;;;106.93;32.40;;;;;;;;;;5042383;28;20198;-67
2022/01/19 04:24:18;;;;;;;97.77;31.47;;;;;;;;;;5046161;28;20192;-67
2022/01/19 04:26:44;;;;;;;105.60;32.80;;;;;;;;;;5037819;28;20334;-68
2022/01/19 04:29:10;;;;;;;114.13;34.33;;;;;;;;;;5045814;28;20194;-68
2022/01/19 04:31:35;;;;;;;109.30;35.17;;;;;;;;;;5044666;28;20652;-68
2022/01/19 04:34:04;;;;;;;118.07;35.27;;;;;;;;;;5040097;28;20511;-68
2022/01/19 04:47:31;;;;;;;88.07;29.83;;;;;;;;;;5040908;28;20188;-67
2022/01/19 05:03:27;;;;;;;101.77;27.90;;;;;;;;;;5044793;28;20212;-67
2022/01/19 05:06:00;;;;;;;76.30;27.07;;;;;;;;;;5044040;28;20892;-68
2022/01/19 05:13:38;;;;;;;71.60;27.63;;;;;;;;;;5038854;28;20668;-68
2022/01/19 05:16:04;;;;;;;77.33;28.10;;;;;;;;;;5039990;28;20190;-68
2022/01/19 05:18:30;;;;;;;71.47;28.83;;;;;;;;;;5036557;28;20215;-67
2022/01/19 05:20:56;;;;;;;74.63;28.43;;;;;;;;;;5042097;28;20288;-67
2022/01/19 05:23:21;;;;;;;69.30;27.27;;;;;;;;;;5042545;28;20796;-67
2022/01/19 05:25:47;;;;;;;63.47;25.83;;;;;;;;;;5044089;28;21340;-68
2022/01/19 05:28:12;;;;;;;58.30;27.63;;;;;;;;;;5042440;28;20613;-67
2022/01/19 05:30:38;;;;;;;65.10;27.57;;;;;;;;;;5044011;28;20216;-68
2022/01/19 05:33:03;;;;;;;60.83;28.67;;;;;;;;;;5042002;28;20260;-68
2022/01/19 05:35:30;;;;;;;60.93;28.93;;;;;;;;;;5044826;28;20177;-68
2022/01/19 05:37:55;;;;;;;63.07;29.00;;;;;;;;;;5040961;28;20190;-68
2022/01/19 05:40:21;;;;;;;70.63;28.97;;;;;;;;;;5045915;28;20622;-67
2022/01/19 05:42:48;;;;;;;60.70;29.67;;;;;;;;;;5044724;28;20200;-68
2022/01/19 05:45:14;;;;;;;60.07;27.23;;;;;;;;;;5046594;28;20272;-67
2022/01/19 05:47:39;;;;;;;56.67;28.93;;;;;;;;;;5049696;28;20593;-68
2022/01/19 05:50:05;;;;;;;58.37;28.60;;;;;;;;;;5041701;28;20221;-67
2022/01/19 05:52:31;;;;;;;54.27;29.23;;;;;;;;;;5046275;28;20177;-68
2022/01/19 05:54:56;;;;;;;53.23;29.33;;;;;;;;;;5045710;28;20255;-67
2022/01/19 05:57:21;;;;;;;56.60;29.70;;;;;;;;;;5047116;28;20268;-68
2022/01/19 05:59:47;;;;;;;54.97;30.33;;;;;;;;;;5044276;28;20617;-68
2022/01/19 06:02:12;;;;;;;56.17;30.67;;;;;;;;;;5045617;28;20251;-68
2022/01/19 06:04:38;;;;;;;56.80;31.13;;;;;;;;;;5046798;28;20284;-68
2022/01/19 06:07:03;;;;;;;59.97;31.60;;;;;;;;;;5048846;28;20217;-69
2022/01/19 06:09:47;;;;;;;61.17;32.20;;;;;;;;;;5044662;28;20178;-69
2022/01/19 06:12:14;;;;;;;60.00;31.00;;;;;;;;;;5043935;28;20635;-69
2022/01/19 06:14:41;;;;;;;53.30;29.53;;;;;;;;;;5043543;28;20628;-69
2022/01/19 06:17:08;;;;;;;55.20;31.17;;;;;;;;;;5046705;28;20550;-69
2022/01/19 06:19:34;;;;;;;48.43;28.10;;;;;;;;;;5044560;28;20255;-68
2022/01/19 06:22:00;;;;;;;47.87;27.80;;;;;;;;;;5041625;28;20209;-68
2022/01/19 06:24:25;;;;;;;51.30;29.03;;;;;;;;;;5044539;28;20216;-69
2022/01/19 06:26:51;;;;;;;43.17;26.13;;;;;;;;;;5044557;28;20209;-69
2022/01/19 06:29:17;;;;;;;48.40;26.93;;;;;;;;;;5045167;28;20177;-69
2022/01/19 06:31:42;;;;;;;48.50;28.13;;;;;;;;;;5043521;28;20229;-69
2022/01/19 06:34:08;;;;;;;49.10;28.27;;;;;;;;;;5038290;28;20197;-69
2022/01/19 06:36:33;;;;;;;46.00;27.90;;;;;;;;;;5042179;28;20190;-68
2022/01/19 06:38:59;;;;;;;47.70;27.73;;;;;;;;;;5043621;28;20186;-67
2022/01/19 06:41:24;;;;;;;44.30;26.43;;;;;;;;;;5041463;28;20185;-68
2022/01/19 06:43:50;;;;;;;42.00;26.13;;;;;;;;;;5042564;28;20212;-68
2022/01/19 06:46:15;;;;;;;41.87;26.23;;;;;;;;;;5043806;28;20197;-68
2022/01/19 06:48:41;;;;;;;43.60;25.27;;;;;;;;;;5046148;28;20189;-68
2022/01/19 06:51:06;;;;;;;45.53;27.90;;;;;;;;;;5042916;28;20181;-68
2022/01/19 06:53:31;;;;;;;44.40;25.83;;;;;;;;;;5047733;28;20272;-68
2022/01/19 06:55:57;;;;;;;44.53;25.00;;;;;;;;;;5038578;28;20239;-68
2022/01/19 06:58:27;;;;;;;43.20;25.00;;;;;;;;;;5043818;28;20197;-68
2022/01/19 07:00:54;;;;;;;50.07;25.97;;;;;;;;;;5037771;28;20178;-69
2022/01/19 07:03:20;;;;;;;45.57;24.60;;;;;;;;;;5041631;28;20213;-68
2022/01/19 07:05:46;;;;;;;45.77;25.83;;;;;;;;;;5039671;28;20539;-68
2022/01/19 07:08:11;;;;;;;49.87;25.93;;;;;;;;;;5041165;28;20235;-68
2022/01/19 07:10:37;;;;;;;43.07;26.00;;;;;;;;;;5039255;28;20335;-68
2022/01/19 07:13:03;;;;;;;47.50;25.97;;;;;;;;;;5047192;28;20178;-69
2022/01/19 07:15:29;;;;;;;46.00;24.97;;;;;;;;;;5044490;28;20178;-68
2022/01/19 07:17:54;;;;;;;46.93;26.23;;;;;;;;;;5045997;28;20208;-69
2022/01/19 07:20:20;;;;;;;49.97;26.63;;;;;;;;;;5042647;28;20324;-69
2022/01/19 07:22:47;;;;;;;52.13;26.60;;;;;;;;;;5044238;28;20215;-68
2022/01/19 07:25:12;;;;;;;55.30;28.07;;;;;;;;;;5044933;28;20273;-68
2022/01/19 07:27:37;;;;;;;54.30;28.33;;;;;;;;;;5046126;28;20260;-68
2022/01/19 07:30:05;;;;;;;52.63;27.60;;;;;;;;;;5048150;28;20201;-68
2022/01/19 07:32:34;;;;;;;59.10;28.23;;;;;;;;;;5043495;28;20184;-68
2022/01/19 07:35:00;;;;;;;57.73;28.17;;;;;;;;;;5044877;28;20193;-68
2022/01/19 07:37:26;;;;;;;59.83;28.40;;;;;;;;;;5046035;28;20292;-68
2022/01/19 07:39:51;;;;;;;55.87;26.33;;;;;;;;;;5047196;28;20208;-68
2022/01/19 07:42:16;;;;;;;59.27;28.23;;;;;;;;;;5042254;28;20198;-68
2022/01/19 07:44:42;;;;;;;59.27;28.53;;;;;;;;;;5045329;28;20891;-68
2022/01/19 07:47:07;;;;;;;58.03;27.90;;;;;;;;;;5040390;28;20189;-68
2022/01/19 07:49:33;;;;;;;56.63;28.50;;;;;;;;;;5047353;28;20520;-68
2022/01/19 07:51:58;;;;;;;58.33;28.00;;;;;;;;;;5041893;28;20173;-68
2022/01/19 07:54:23;;;;;;;53.93;28.30;;;;;;;;;;5042670;28;20209;-68
2022/01/19 07:56:49;;;;;;;58.57;27.60;;;;;;;;;;5038600;28;20692;-68
2022/01/19 07:59:15;;;;;;;55.17;28.70;;;;;;;;;;5043550;28;20189;-68
2022/01/19 08:01:40;;;;;;;60.03;28.00;;;;;;;;;;5041875;28;20672;-68
2022/01/19 08:04:06;;;;;;;53.23;27.77;;;;;;;;;;5042309;28;20188;-68
2022/01/19 08:06:31;;;;;;;63.00;28.33;;;;;;;;;;5038706;28;20705;-68
2022/01/19 08:08:57;;;;;;;58.17;27.37;;;;;;;;;;5044577;28;20186;-68
2022/01/19 08:11:23;;;;;;;58.33;27.63;;;;;;;;;;5042310;28;20256;-68
2022/01/19 08:13:49;;;;;;;60.70;28.60;;;;;;;;;;5047748;28;20193;-68
2022/01/19 08:16:15;;;;;;;54.53;25.93;;;;;;;;;;5043580;28;20198;-68
2022/01/19 08:18:41;;;;;;;59.77;27.93;;;;;;;;;;5042044;28;20440;-68
2022/01/19 08:21:06;;;;;;;55.93;27.77;;;;;;;;;;5048572;28;21411;-68
2022/01/19 08:23:32;;;;;;;59.43;27.67;;;;;;;;;;5043903;28;20205;-69
2022/01/19 08:25:57;;;;;;;57.77;29.13;;;;;;;;;;5046209;28;20181;-68
2022/01/19 08:28:22;;;;;;;62.27;28.67;;;;;;;;;;5043576;28;20624;-68
2022/01/19 08:30:48;;;;;;;64.13;28.03;;;;;;;;;;5045884;28;20206;-68
2022/01/19 08:33:13;;;;;;;69.37;30.37;;;;;;;;;;5041987;28;20554;-68
2022/01/19 08:35:39;;;;;;;66.67;29.47;;;;;;;;;;5046297;28;20193;-68
2022/01/19 08:38:04;;;;;;;65.57;29.60;;;;;;;;;;5044858;28;20684;-68
2022/01/19 08:40:30;;;;;;;69.33;29.63;;;;;;;;;;5037459;28;20246;-68
2022/01/19 08:42:56;;;;;;;65.80;31.20;;;;;;;;;;5042854;28;20294;-68
2022/01/19 08:45:22;;;;;;;78.03;30.43;;;;;;;;;;5047681;28;20661;-68
2022/01/19 08:47:48;;;;;;;74.60;29.07;;;;;;;;;;5042324;28;20182;-68
2022/01/19 08:50:15;;;;;;;72.37;29.03;;;;;;;;;;5047138;28;20280;-68
2022/01/19 08:52:42;;;;;;;71.43;30.30;;;;;;;;;;5044400;28;20190;-68
2022/01/19 08:55:07;;;;;;;73.03;31.70;;;;;;;;;;5043891;28;20178;-68
2022/01/19 08:57:32;;;;;;;80.03;31.17;;;;;;;;;;5044088;28;20617;-68
2022/01/19 08:59:58;;;;;;;76.57;30.97;;;;;;;;;;5046022;28;20182;-68
2022/01/19 09:02:23;;;;;;;71.80;30.10;;;;;;;;;;5045041;28;20215;-68
2022/01/19 09:04:50;;;;;;;70.17;30.93;;;;;;;;;;5042406;28;20536;-68
2022/01/19 09:07:15;;;;;;;70.27;29.40;;;;;;;;;;5043285;28;20317;-68
2022/01/19 09:09:41;;;;;;;67.50;29.10;;;;;;;;;;5044599;28;20205;-68
2022/01/19 09:12:07;;;;;;;65.00;28.43;;;;;;;;;;5047323;28;20190;-68
2022/01/19 09:14:32;;;;;;;67.37;29.87;;;;;;;;;;5046881;28;20185;-67
2022/01/19 09:16:58;;;;;;;69.37;29.13;;;;;;;;;;5061793;28;20201;-68
2022/01/19 09:19:24;;;;;;;66.57;28.90;;;;;;;;;;5046616;28;20192;-67
2022/01/19 09:21:50;;;;;;;61.67;27.93;;;;;;;;;;5051883;28;20275;-68
2022/01/19 09:24:16;;;;;;;66.83;29.50;;;;;;;;;;5046588;28;20196;-68
2022/01/19 09:26:42;;;;;;;63.53;28.67;;;;;;;;;;5048538;28;20185;-68
2022/01/19 09:29:08;;;;;;;65.87;28.67;;;;;;;;;;5045659;28;20196;-68
2022/01/19 09:31:34;;;;;;;56.53;27.83;;;;;;;;;;5053036;28;20205;-69
2022/01/19 09:34:10;;;;;;;62.67;28.43;;;;;;;;;;5043589;28;20181;-68
2022/01/19 09:36:44;;;;;;;67.60;29.20;;;;;;;;;;5048326;28;20193;-68
2022/01/19 09:39:10;;;;;;;73.13;29.00;;;;;;;;;;5046965;28;20247;-68
2022/01/19 09:41:36;;;;;;;72.77;29.77;;;;;;;;;;5050413;28;20177;-68
2022/01/19 09:44:02;;;;;;;63.20;28.77;;;;;;;;;;5047413;28;20251;-68
2022/01/19 09:46:29;;;;;;;63.83;28.70;;;;;;;;;;5043953;28;20182;-68
2022/01/19 09:48:55;;;;;;;63.70;28.63;;;;;;;;;;5047303;28;20181;-68
2022/01/19 09:51:20;;;;;;;67.43;28.50;;;;;;;;;;5049166;28;20191;-68
2022/01/19 09:53:47;;;;;;;62.33;29.07;;;;;;;;;;5046126;28;20954;-68
2022/01/19 09:56:15;;;;;;;65.73;29.37;;;;;;;;;;5045949;28;20240;-68
2022/01/19 09:58:41;;;;;;;68.77;29.40;;;;;;;;;;5048474;28;20269;-68
2022/01/19 10:01:06;;;;;;;67.60;29.67;;;;;;;;;;5042224;28;20792;-68
2022/01/19 10:03:32;;;;;;;67.23;29.67;;;;;;;;;;5046327;28;20301;-68
2022/01/19 10:06:15;;;;;;;71.37;30.97;;;;;;;;;;5045965;28;20299;-68
2022/01/19 10:08:49;;;;;;;71.57;31.87;;;;;;;;;;5043884;28;20201;-68
2022/01/19 10:17:01;;;;;;;69.73;29.60;;;;;;;;;;5046477;28;20181;-67
2022/01/19 10:19:34;;;;;;;63.03;29.90;;;;;;;;;;5046306;28;20227;-67
2022/01/19 10:22:05;;;;;;;67.27;29.30;;;;;;;;;;5047027;28;20281;-68
2022/01/19 10:24:37;;;;;;;68.47;30.27;;;;;;;;;;5045416;28;20193;-67
2022/01/19 10:27:20;;;;;;;64.20;29.47;;;;;;;;;;5046058;28;20200;-67
2022/01/19 10:29:48;;;;;;;63.67;29.57;;;;;;;;;;5046955;28;20227;-68
2022/01/19 10:32:13;;;;;;;65.20;30.77;;;;;;;;;;5045738;28;20196;-67
2022/01/19 10:34:39;;;;;;;60.97;28.73;;;;;;;;;;5043348;28;20209;-68
2022/01/19 10:37:05;;;;;;;61.43;29.87;;;;;;;;;;5044511;28;20193;-68
2022/01/19 10:39:53;;;;;;;63.43;29.67;;;;;;;;;;5045050;28;20191;-68
2022/01/19 10:42:21;;;;;;;64.77;30.17;;;;;;;;;;5037813;28;20197;-68
2022/01/19 10:44:52;;;;;;;64.53;28.90;;;;;;;;;;5045361;28;20231;-68
2022/01/19 10:47:36;;;;;;;60.70;30.17;;;;;;;;;;5046354;28;20224;-68
2022/01/19 10:50:01;;;;;;;60.60;29.27;;;;;;;;;;5043365;28;20268;-67
2022/01/19 10:52:29;;;;;;;65.23;29.80;;;;;;;;;;5044248;28;20268;-67
2022/01/19 10:54:57;;;;;;;63.00;28.77;;;;;;;;;;5042991;28;20182;-67
2022/01/19 10:57:23;;;;;;;66.37;30.63;;;;;;;;;;5042055;28;20260;-67
2022/01/19 10:59:50;;;;;;;59.63;28.87;;;;;;;;;;5045720;28;20191;-67
2022/01/19 11:02:17;;;;;;;59.67;30.07;;;;;;;;;;5040739;28;20201;-67
2022/01/19 11:04:44;;;;;;;63.80;29.17;;;;;;;;;;5047469;28;20189;-67
2022/01/19 11:07:15;;;;;;;60.73;28.37;;;;;;;;;;5040829;28;20233;-68
2022/01/19 11:10:01;;;;;;;62.10;29.10;;;;;;;;;;5043346;28;20596;-68
2022/01/19 11:12:31;;;;;;;63.10;28.37;;;;;;;;;;5040609;28;20178;-68
2022/01/19 11:14:56;;;;;;;58.80;28.83;;;;;;;;;;5044360;28;20185;-68
2022/01/19 11:17:22;;;;;;;60.60;29.03;;;;;;;;;;5045537;28;20256;-68
2022/01/19 11:19:49;;;;;;;62.10;29.93;;;;;;;;;;5044193;28;20189;-68
2022/01/19 11:22:36;;;;;;;58.30;27.70;;;;;;;;;;5041527;28;20602;-68
2022/01/19 11:25:15;;;;;;;61.30;29.20;;;;;;;;;;5044831;28;20521;-68
2022/01/19 11:27:45;;;;;;;56.27;27.13;;;;;;;;;;5043356;28;20534;-68
2022/01/19 11:30:12;;;;;;;56.77;27.80;;;;;;;;;;5043230;28;20212;-68
2022/01/19 11:32:38;;;;;;;58.93;28.77;;;;;;;;;;5044651;28;20193;-68
2022/01/19 11:35:04;;;;;;;60.03;29.13;;;;;;;;;;5043690;28;20649;-68
2022/01/19 11:37:41;;;;;;;58.83;29.87;;;;;;;;;;5043187;28;20670;-68
2022/01/19 11:40:09;;;;;;;61.67;29.00;;;;;;;;;;5043275;28;20279;-68
2022/01/19 11:42:35;;;;;;;59.63;30.17;;;;;;;;;;5045044;28;20244;-68
2022/01/19 11:45:02;;;;;;;59.37;28.27;;;;;;;;;;5042319;28;20605;-68
2022/01/19 11:47:29;;;;;;;62.43;28.50;;;;;;;;;;5042311;28;20208;-68
2022/01/19 11:50:18;;;;;;;57.17;28.30;;;;;;;;;;5046890;28;20189;-67
2022/01/19 11:52:43;;;;;;;61.83;30.63;;;;;;;;;;5041140;28;20629;-67
2022/01/19 11:55:18;;;;;;;56.47;28.90;;;;;;;;;;5041812;28;20478;-68
2022/01/19 11:57:47;;;;;;;54.03;29.50;;;;;;;;;;5041250;28;20185;-68
2022/01/19 12:00:30;;;;;;;58.63;29.10;;;;;;;;;;5045628;28;20233;-67
2022/01/19 12:02:59;;;;;;;63.37;29.40;;;;;;;;;;5040382;28;20198;-68
2022/01/19 12:05:27;;;;;;;55.37;29.03;;;;;;;;;;5045029;28;20186;-68
2022/01/19 12:07:59;;;;;;;66.40;29.87;;;;;;;;;;5039053;28;20572;-67
2022/01/19 12:10:31;;;;;;;60.50;29.63;;;;;;;;;;5043004;28;20192;-67
2022/01/19 12:18:47;;;;;;;63.43;31.47;;;;;;;;;;5045383;28;20193;-68
2022/01/19 12:21:32;;;;;;;63.77;30.23;;;;;;;;;;5041321;28;20314;-68
2022/01/19 12:24:19;;;;;;;62.60;30.43;;;;;;;;;;5030948;28;20197;-68
2022/01/19 12:26:53;;;;;;;56.63;29.33;;;;;;;;;;5045231;28;20660;-68
2022/01/19 12:29:34;;;;;;;56.53;29.60;;;;;;;;;;5042117;28;20692;-68
2022/01/19 12:32:00;;;;;;;63.33;31.80;;;;;;;;;;5043271;28;20633;-68
2022/01/19 12:34:38;;;;;;;65.03;31.60;;;;;;;;;;5045128;28;20254;-68
2022/01/19 12:37:04;;;;;;;64.27;30.23;;;;;;;;;;5038282;28;20407;-68
2022/01/19 12:39:29;;;;;;;62.40;30.23;;;;;;;;;;5043389;28;20238;-68
2022/01/19 12:42:04;;;;;;;63.73;31.53;;;;;;;;;;5040277;28;20213;-68
2022/01/19 12:44:48;;;;;;;62.03;30.73;;;;;;;;;;5042162;28;20652;-68
2022/01/19 12:47:26;;;;;;;62.17;30.83;;;;;;;;;;5043827;28;20221;-68
2022/01/19 12:50:04;;;;;;;56.97;29.33;;;;;;;;;;5038098;28;20177;-68
2022/01/19 12:52:32;;;;;;;57.57;29.97;;;;;;;;;;5039716;28;20204;-68
2022/01/19 12:55:12;;;;;;;59.33;28.53;;;;;;;;;;5043404;28;20302;-68
2022/01/19 12:57:37;;;;;;;56.20;28.67;;;;;;;;;;5041823;28;20181;-68
2022/01/19 13:00:05;;;;;;;54.47;27.47;;;;;;;;;;5041983;28;20257;-68
2022/01/19 13:02:30;;;;;;;60.33;29.10;;;;;;;;;;5041114;28;20209;-68
2022/01/19 13:05:12;;;;;;;57.90;29.13;;;;;;;;;;5042495;28;20291;-68
2022/01/19 13:07:39;;;;;;;53.40;27.30;;;;;;;;;;5039570;28;20235;-68
2022/01/19 13:13:10;;;;;;;55.73;27.87;;;;;;;;;;5040427;28;20708;-68
2022/01/19 13:15:39;;;;;;;55.67;28.17;;;;;;;;;;5043026;28;20193;-68
2022/01/19 13:18:05;;;;;;;52.53;27.00;;;;;;;;;;5040229;28;20177;-68
2022/01/19 13:20:31;;;;;;;54.83;26.87;;;;;;;;;;5038744;28;20185;-68
2022/01/19 13:22:58;;;;;;;59.60;28.67;;;;;;;;;;5044619;28;20560;-68
2022/01/19 13:25:30;;;;;;;58.40;27.87;;;;;;;;;;5044510;28;20258;-67
2022/01/19 13:28:01;;;;;;;53.93;27.80;;;;;;;;;;5037801;28;20177;-67
2022/01/19 13:30:29;;;;;;;54.93;28.87;;;;;;;;;;5042013;28;20205;-67
2022/01/19 13:32:55;;;;;;;58.67;27.80;;;;;;;;;;5042993;28;20270;-67
2022/01/19 13:35:23;;;;;;;56.83;27.53;;;;;;;;;;5040558;28;20243;-68
2022/01/19 13:37:58;;;;;;;59.80;28.83;;;;;;;;;;5044156;28;20243;-67
2022/01/19 13:40:30;;;;;;;59.30;28.77;;;;;;;;;;5041890;28;20275;-68
2022/01/19 13:42:59;;;;;;;53.33;28.47;;;;;;;;;;5042592;28;20212;-67
2022/01/19 13:45:48;;;;;;;56.13;27.90;;;;;;;;;;5044171;28;20181;-68
2022/01/19 13:51:06;;;;;;;55.53;27.97;;;;;;;;;;5046762;28;20246;-68
2022/01/19 13:53:37;;;;;;;60.57;29.40;;;;;;;;;;5042385;28;20223;-68
2022/01/19 13:56:06;;;;;;;58.37;29.07;;;;;;;;;;5046239;28;20624;-68
2022/01/19 13:58:35;;;;;;;67.73;29.13;;;;;;;;;;5043435;28;20562;-68
2022/01/19 14:01:04;;;;;;;63.93;31.30;;;;;;;;;;5044343;28;20310;-68
2022/01/19 14:03:47;;;;;;;56.83;29.83;;;;;;;;;;5047011;28;20201;-68
2022/01/19 14:06:42;;;;;;;60.83;29.93;;;;;;;;;;5045644;28;20201;-68
2022/01/19 14:09:14;;;;;;;58.13;28.93;;;;;;;;;;5046512;28;20205;-68
2022/01/19 14:11:43;;;;;;;58.50;29.97;;;;;;;;;;5045509;28;20200;-67
2022/01/19 14:14:12;;;;;;;58.83;28.60;;;;;;;;;;5046826;28;20232;-67
2022/01/19 14:16:47;;;;;;;60.80;30.30;;;;;;;;;;5043832;28;20178;-67
2022/01/19 14:19:26;;;;;;;57.13;29.23;;;;;;;;;;5045460;28;20196;-67
2022/01/19 14:21:55;;;;;;;59.40;30.23;;;;;;;;;;5039079;28;20174;-67
2022/01/19 14:24:21;;;;;;;58.47;30.57;;;;;;;;;;5044078;28;20568;-67
2022/01/19 14:26:51;;;;;;;60.27;30.83;;;;;;;;;;5045180;28;20615;-67
2022/01/19 14:29:17;;;;;;;60.10;30.63;;;;;;;;;;5049706;28;20250;-67
2022/01/19 14:31:56;;;;;;;58.57;29.73;;;;;;;;;;5047652;28;20209;-67
2022/01/19 14:34:42;;;;;;;62.80;30.27;;;;;;;;;;5046384;28;20272;-67
2022/01/19 14:37:19;;;;;;;62.87;30.43;;;;;;;;;;5047833;28;20239;-68
2022/01/19 14:40:09;;;;;;;60.23;29.47;;;;;;;;;;5046262;28;20205;-68
2022/01/19 14:42:37;;;;;;;56.60;28.83;;;;;;;;;;5036753;28;20241;-68
2022/01/19 14:45:29;;;;;;;59.53;29.63;;;;;;;;;;5039891;28;20197;-68
2022/01/19 14:47:57;;;;;;;63.33;30.97;;;;;;;;;;5048674;28;20182;-68
2022/01/19 14:50:32;;;;;;;56.43;28.63;;;;;;;;;;5043424;28;20692;-68
2022/01/19 14:52:57;;;;;;;59.10;28.33;;;;;;;;;;5045125;28;20665;-68
2022/01/19 14:55:28;;;;;;;57.63;30.37;;;;;;;;;;5047152;28;20272;-69
2022/01/19 14:57:56;;;;;;;59.83;29.27;;;;;;;;;;5046590;28;20202;-68
2022/01/19 15:00:24;;;;;;;55.13;28.63;;;;;;;;;;5045989;28;20185;-68
2022/01/19 15:02:57;;;;;;;55.20;30.23;;;;;;;;;;5045400;28;20205;-68
2022/01/19 15:05:27;;;;;;;62.27;27.97;;;;;;;;;;5041831;28;20192;-68
2022/01/19 15:07:52;;;;;;;58.03;28.97;;;;;;;;;;5045355;28;20869;-68
2022/01/19 15:10:19;;;;;;;64.87;30.80;;;;;;;;;;5045929;28;20280;-68
2022/01/19 15:12:45;;;;;;;55.93;29.83;;;;;;;;;;5045864;28;20173;-68
2022/01/19 15:15:11;;;;;;;56.63;29.27;;;;;;;;;;5047725;28;20300;-69
2022/01/19 15:17:38;;;;;;;64.97;30.53;;;;;;;;;;5047038;28;20196;-69
2022/01/19 15:20:06;;;;;;;61.13;30.97;;;;;;;;;;5045631;28;20190;-69
2022/01/19 15:22:31;;;;;;;63.67;30.83;;;;;;;;;;5046594;28;20194;-68
2022/01/19 15:24:57;;;;;;;62.43;31.30;;;;;;;;;;5045623;28;20565;-68
2022/01/19 15:27:22;;;;;;;65.30;31.73;;;;;;;;;;5046983;28;20209;-69
2022/01/19 15:29:49;;;;;;;60.37;30.33;;;;;;;;;;5045462;28;20698;-69
2022/01/19 15:32:15;;;;;;;63.20;31.00;;;;;;;;;;5044457;28;20185;-70
2022/01/19 15:34:40;;;;;;;59.87;30.77;;;;;;;;;;5046019;28;20190;-71
2022/01/19 15:37:06;;;;;;;64.10;31.13;;;;;;;;;;5044316;28;20236;-70
2022/01/19 15:39:33;;;;;;;68.93;32.73;;;;;;;;;;5044734;28;20273;-70
2022/01/19 15:41:59;;;;;;;64.03;31.73;;;;;;;;;;5043779;28;20221;-70
2022/01/19 15:44:25;;;;;;;65.80;31.67;;;;;;;;;;5045656;28;20223;-70
2022/01/19 15:46:50;;;;;;;70.77;33.10;;;;;;;;;;5041677;28;20254;-70
2022/01/19 15:49:15;;;;;;;67.97;33.43;;;;;;;;;;5044223;28;20200;-70
2022/01/19 15:51:42;;;;;;;69.53;33.03;;;;;;;;;;5043920;28;20292;-69
2022/01/19 15:54:07;;;;;;;66.67;32.47;;;;;;;;;;5044773;28;20591;-69
2022/01/19 15:56:33;;;;;;;68.53;33.23;;;;;;;;;;5047296;28;20196;-69
2022/01/19 15:58:58;;;;;;;64.83;33.00;;;;;;;;;;5038763;28;20185;-70